sensor_id;sensor_type;location;lat;lon;timestamp;P1;durP1;ratioP1;P2;durP2;ratioP2
62580;SDS011;48640;48.770;9.148;2023-05-07T00:00:39;5.05;;;2.50;;
62580;SDS011;48640;48.770;9.148;2023-05-07T00:03:08;4.05;;;2.50;;
62580;SDS011;48640;48.770;9.148;2023-05-07T00:05:36;3.83;;;2.08;;
62580;SDS011;48640;48.770;9.148;2023-05-07T00:08:04;5.35;;;2.05;;
62580;SDS011;48640;48.770;9.148;2023-05-07T00:10:31;6.20;;;2.72;;
62580;SDS011;48640;48.770;9.148;2023-05-07T00:12:58;4.70;;;2.85;;
62580;SDS011;48640;48.770;9.148;2023-05-07T00:15:25;5.45;;;2.70;;
62580;SDS011;48640;48.770;9.148;2023-05-07T00:17:52;5.28;;;2.92;;
62580;SDS011;48640;48.770;9.148;2023-05-07T00:20:20;4.88;;;2.88;;
62580;SDS011;48640;48.770;9.148;2023-05-07T00:22:47;4.65;;;2.83;;
62580;SDS011;48640;48.770;9.148;2023-05-07T00:25:14;5.45;;;2.97;;
62580;SDS011;48640;48.770;9.148;2023-05-07T00:27:41;7.95;;;3.35;;
62580;SDS011;48640;48.770;9.148;2023-05-07T00:30:09;6.18;;;3.38;;
62580;SDS011;48640;48.770;9.148;2023-05-07T00:32:36;5.30;;;3.50;;
62580;SDS011;48640;48.770;9.148;2023-05-07T00:35:04;6.75;;;3.58;;
62580;SDS011;48640;48.770;9.148;2023-05-07T00:37:33;6.80;;;3.60;;
62580;SDS011;48640;48.770;9.148;2023-05-07T00:40:00;6.20;;;3.65;;
62580;SDS011;48640;48.770;9.148;2023-05-07T00:42:29;7.05;;;4.32;;
62580;SDS011;48640;48.770;9.148;2023-05-07T00:44:57;7.03;;;4.50;;
62580;SDS011;48640;48.770;9.148;2023-05-07T00:47:24;6.68;;;4.03;;
62580;SDS011;48640;48.770;9.148;2023-05-07T00:49:51;6.53;;;4.68;;
62580;SDS011;48640;48.770;9.148;2023-05-07T00:52:19;8.18;;;4.47;;
62580;SDS011;48640;48.770;9.148;2023-05-07T00:54:49;6.80;;;4.20;;
62580;SDS011;48640;48.770;9.148;2023-05-07T00:57:16;7.15;;;4.40;;
62580;SDS011;48640;48.770;9.148;2023-05-07T00:59:43;7.50;;;4.40;;
62580;SDS011;48640;48.770;9.148;2023-05-07T01:02:10;7.28;;;5.15;;
62580;SDS011;48640;48.770;9.148;2023-05-07T01:04:37;8.48;;;4.70;;
62580;SDS011;48640;48.770;9.148;2023-05-07T01:07:04;7.45;;;5.05;;
62580;SDS011;48640;48.770;9.148;2023-05-07T01:09:31;9.57;;;5.85;;
62580;SDS011;48640;48.770;9.148;2023-05-07T01:12:01;11.00;;;5.90;;
62580;SDS011;48640;48.770;9.148;2023-05-07T01:14:30;8.88;;;5.63;;
62580;SDS011;48640;48.770;9.148;2023-05-07T01:16:58;6.65;;;4.72;;
62580;SDS011;48640;48.770;9.148;2023-05-07T01:19:25;8.70;;;5.60;;
62580;SDS011;48640;48.770;9.148;2023-05-07T01:21:52;8.98;;;5.72;;
62580;SDS011;48640;48.770;9.148;2023-05-07T01:24:28;6.28;;;4.50;;
62580;SDS011;48640;48.770;9.148;2023-05-07T01:26:56;8.80;;;5.30;;
62580;SDS011;48640;48.770;9.148;2023-05-07T01:29:23;7.13;;;4.93;;
62580;SDS011;48640;48.770;9.148;2023-05-07T01:31:50;7.35;;;4.90;;
62580;SDS011;48640;48.770;9.148;2023-05-07T01:34:18;7.53;;;4.72;;
62580;SDS011;48640;48.770;9.148;2023-05-07T01:36:47;8.18;;;4.93;;
62580;SDS011;48640;48.770;9.148;2023-05-07T01:39:15;8.73;;;4.95;;
62580;SDS011;48640;48.770;9.148;2023-05-07T01:41:43;7.20;;;4.72;;
62580;SDS011;48640;48.770;9.148;2023-05-07T01:44:12;7.70;;;4.70;;
62580;SDS011;48640;48.770;9.148;2023-05-07T01:46:39;10.27;;;5.90;;
62580;SDS011;48640;48.770;9.148;2023-05-07T01:49:06;9.20;;;5.05;;
62580;SDS011;48640;48.770;9.148;2023-05-07T01:51:34;6.22;;;4.82;;
62580;SDS011;48640;48.770;9.148;2023-05-07T01:54:01;9.65;;;4.30;;
62580;SDS011;48640;48.770;9.148;2023-05-07T01:56:28;6.03;;;3.95;;
62580;SDS011;48640;48.770;9.148;2023-05-07T01:58:56;6.07;;;3.83;;
62580;SDS011;48640;48.770;9.148;2023-05-07T02:01:23;6.85;;;4.28;;
62580;SDS011;48640;48.770;9.148;2023-05-07T02:03:50;5.53;;;3.97;;
62580;SDS011;48640;48.770;9.148;2023-05-07T02:06:17;6.78;;;4.00;;
62580;SDS011;48640;48.770;9.148;2023-05-07T02:08:44;7.40;;;4.88;;
62580;SDS011;48640;48.770;9.148;2023-05-07T02:11:11;7.00;;;4.13;;
62580;SDS011;48640;48.770;9.148;2023-05-07T02:13:38;6.15;;;3.97;;
62580;SDS011;48640;48.770;9.148;2023-05-07T02:16:06;7.82;;;4.25;;
62580;SDS011;48640;48.770;9.148;2023-05-07T02:18:33;7.35;;;4.05;;
62580;SDS011;48640;48.770;9.148;2023-05-07T02:21:00;6.22;;;3.95;;
62580;SDS011;48640;48.770;9.148;2023-05-07T02:23:27;7.90;;;3.88;;
62580;SDS011;48640;48.770;9.148;2023-05-07T02:25:54;5.50;;;3.55;;
62580;SDS011;48640;48.770;9.148;2023-05-07T02:28:21;6.25;;;4.47;;
62580;SDS011;48640;48.770;9.148;2023-05-07T02:30:48;4.55;;;3.50;;
62580;SDS011;48640;48.770;9.148;2023-05-07T02:33:17;6.20;;;4.38;;
62580;SDS011;48640;48.770;9.148;2023-05-07T02:35:44;6.50;;;3.88;;
62580;SDS011;48640;48.770;9.148;2023-05-07T02:38:10;6.13;;;4.05;;
62580;SDS011;48640;48.770;9.148;2023-05-07T02:40:37;6.55;;;4.03;;
62580;SDS011;48640;48.770;9.148;2023-05-07T02:43:04;6.10;;;3.95;;
62580;SDS011;48640;48.770;9.148;2023-05-07T02:45:31;7.15;;;4.13;;
62580;SDS011;48640;48.770;9.148;2023-05-07T02:47:58;6.22;;;3.97;;
62580;SDS011;48640;48.770;9.148;2023-05-07T02:50:26;5.38;;;3.88;;
62580;SDS011;48640;48.770;9.148;2023-05-07T02:52:53;6.05;;;4.35;;
62580;SDS011;48640;48.770;9.148;2023-05-07T02:55:20;5.95;;;4.25;;
62580;SDS011;48640;48.770;9.148;2023-05-07T02:57:47;6.88;;;3.22;;
62580;SDS011;48640;48.770;9.148;2023-05-07T03:00:14;5.40;;;3.50;;
62580;SDS011;48640;48.770;9.148;2023-05-07T03:02:42;6.90;;;3.17;;
62580;SDS011;48640;48.770;9.148;2023-05-07T03:05:09;4.57;;;3.35;;
62580;SDS011;48640;48.770;9.148;2023-05-07T03:07:39;6.10;;;3.17;;
62580;SDS011;48640;48.770;9.148;2023-05-07T03:10:06;4.22;;;3.03;;
62580;SDS011;48640;48.770;9.148;2023-05-07T03:12:34;6.00;;;3.40;;
62580;SDS011;48640;48.770;9.148;2023-05-07T03:15:01;5.88;;;3.03;;
62580;SDS011;48640;48.770;9.148;2023-05-07T03:17:28;4.93;;;3.20;;
62580;SDS011;48640;48.770;9.148;2023-05-07T03:19:54;4.65;;;3.42;;
62580;SDS011;48640;48.770;9.148;2023-05-07T03:22:21;9.40;;;3.88;;
62580;SDS011;48640;48.770;9.148;2023-05-07T03:24:50;5.82;;;3.15;;
62580;SDS011;48640;48.770;9.148;2023-05-07T03:27:17;4.47;;;3.25;;
62580;SDS011;48640;48.770;9.148;2023-05-07T03:29:44;6.22;;;3.45;;
62580;SDS011;48640;48.770;9.148;2023-05-07T03:32:11;7.20;;;3.33;;
62580;SDS011;48640;48.770;9.148;2023-05-07T03:34:37;6.03;;;3.33;;
62580;SDS011;48640;48.770;9.148;2023-05-07T03:37:04;5.35;;;3.50;;
62580;SDS011;48640;48.770;9.148;2023-05-07T03:39:31;4.82;;;2.97;;
62580;SDS011;48640;48.770;9.148;2023-05-07T03:41:59;4.82;;;3.15;;
62580;SDS011;48640;48.770;9.148;2023-05-07T03:44:27;6.30;;;3.63;;
62580;SDS011;48640;48.770;9.148;2023-05-07T03:46:54;4.35;;;3.45;;
62580;SDS011;48640;48.770;9.148;2023-05-07T03:49:21;6.50;;;2.90;;
62580;SDS011;48640;48.770;9.148;2023-05-07T03:51:48;4.75;;;2.70;;
62580;SDS011;48640;48.770;9.148;2023-05-07T03:54:15;5.07;;;2.70;;
62580;SDS011;48640;48.770;9.148;2023-05-07T03:56:42;5.22;;;2.90;;
62580;SDS011;48640;48.770;9.148;2023-05-07T03:59:10;4.50;;;2.70;;
62580;SDS011;48640;48.770;9.148;2023-05-07T04:01:38;6.57;;;2.77;;
62580;SDS011;48640;48.770;9.148;2023-05-07T04:04:05;5.32;;;2.90;;
62580;SDS011;48640;48.770;9.148;2023-05-07T04:06:32;5.30;;;3.00;;
62580;SDS011;48640;48.770;9.148;2023-05-07T04:08:58;6.05;;;3.05;;
62580;SDS011;48640;48.770;9.148;2023-05-07T04:11:25;5.28;;;3.10;;
62580;SDS011;48640;48.770;9.148;2023-05-07T04:13:52;4.35;;;2.95;;
62580;SDS011;48640;48.770;9.148;2023-05-07T04:16:21;5.38;;;3.20;;
62580;SDS011;48640;48.770;9.148;2023-05-07T04:18:47;5.13;;;2.88;;
62580;SDS011;48640;48.770;9.148;2023-05-07T04:21:15;5.95;;;3.30;;
62580;SDS011;48640;48.770;9.148;2023-05-07T04:23:42;4.30;;;3.05;;
62580;SDS011;48640;48.770;9.148;2023-05-07T04:26:09;6.25;;;2.50;;
62580;SDS011;48640;48.770;9.148;2023-05-07T04:28:36;4.43;;;2.58;;
62580;SDS011;48640;48.770;9.148;2023-05-07T04:31:03;4.50;;;3.65;;
62580;SDS011;48640;48.770;9.148;2023-05-07T04:33:32;4.13;;;2.45;;
62580;SDS011;48640;48.770;9.148;2023-05-07T04:36:00;4.88;;;2.60;;
62580;SDS011;48640;48.770;9.148;2023-05-07T04:38:28;3.67;;;2.60;;
62580;SDS011;48640;48.770;9.148;2023-05-07T04:40:56;4.10;;;2.45;;
62580;SDS011;48640;48.770;9.148;2023-05-07T04:43:23;3.65;;;2.60;;
62580;SDS011;48640;48.770;9.148;2023-05-07T04:45:50;3.80;;;2.45;;
62580;SDS011;48640;48.770;9.148;2023-05-07T04:48:21;4.18;;;2.50;;
62580;SDS011;48640;48.770;9.148;2023-05-07T04:50:50;3.88;;;2.47;;
62580;SDS011;48640;48.770;9.148;2023-05-07T04:53:17;5.25;;;2.78;;
62580;SDS011;48640;48.770;9.148;2023-05-07T04:55:44;4.05;;;3.22;;
62580;SDS011;48640;48.770;9.148;2023-05-07T04:58:11;4.20;;;2.75;;
62580;SDS011;48640;48.770;9.148;2023-05-07T05:00:38;4.05;;;2.85;;
62580;SDS011;48640;48.770;9.148;2023-05-07T05:03:08;4.72;;;3.00;;
62580;SDS011;48640;48.770;9.148;2023-05-07T05:05:36;5.38;;;3.15;;
62580;SDS011;48640;48.770;9.148;2023-05-07T05:08:04;5.22;;;4.22;;
62580;SDS011;48640;48.770;9.148;2023-05-07T05:10:31;4.85;;;3.42;;
62580;SDS011;48640;48.770;9.148;2023-05-07T05:12:58;4.68;;;3.42;;
62580;SDS011;48640;48.770;9.148;2023-05-07T05:15:28;4.90;;;3.25;;
62580;SDS011;48640;48.770;9.148;2023-05-07T05:17:55;4.55;;;3.20;;
62580;SDS011;48640;48.770;9.148;2023-05-07T05:20:22;6.47;;;3.53;;
62580;SDS011;48640;48.770;9.148;2023-05-07T05:22:48;4.90;;;3.58;;
62580;SDS011;48640;48.770;9.148;2023-05-07T05:25:17;4.57;;;3.95;;
62580;SDS011;48640;48.770;9.148;2023-05-07T05:27:44;4.57;;;3.70;;
62580;SDS011;48640;48.770;9.148;2023-05-07T05:30:11;5.38;;;3.33;;
62580;SDS011;48640;48.770;9.148;2023-05-07T05:32:38;6.05;;;4.10;;
62580;SDS011;48640;48.770;9.148;2023-05-07T05:35:06;7.45;;;3.67;;
62580;SDS011;48640;48.770;9.148;2023-05-07T05:37:33;5.50;;;3.78;;
62580;SDS011;48640;48.770;9.148;2023-05-07T05:40:00;4.78;;;3.13;;
62580;SDS011;48640;48.770;9.148;2023-05-07T05:42:28;4.55;;;3.40;;
62580;SDS011;48640;48.770;9.148;2023-05-07T05:44:55;6.25;;;3.85;;
62580;SDS011;48640;48.770;9.148;2023-05-07T05:47:22;4.95;;;3.70;;
62580;SDS011;48640;48.770;9.148;2023-05-07T05:49:49;5.72;;;3.25;;
62580;SDS011;48640;48.770;9.148;2023-05-07T05:52:16;4.15;;;2.88;;
62580;SDS011;48640;48.770;9.148;2023-05-07T05:54:43;4.88;;;2.97;;
62580;SDS011;48640;48.770;9.148;2023-05-07T05:57:09;5.68;;;2.97;;
62580;SDS011;48640;48.770;9.148;2023-05-07T05:59:38;5.25;;;3.08;;
62580;SDS011;48640;48.770;9.148;2023-05-07T06:02:05;3.63;;;2.88;;
62580;SDS011;48640;48.770;9.148;2023-05-07T06:04:32;5.93;;;3.33;;
62580;SDS011;48640;48.770;9.148;2023-05-07T06:06:59;4.57;;;3.00;;
62580;SDS011;48640;48.770;9.148;2023-05-07T06:09:26;5.97;;;3.22;;
62580;SDS011;48640;48.770;9.148;2023-05-07T06:11:53;4.72;;;3.03;;
62580;SDS011;48640;48.770;9.148;2023-05-07T06:14:20;5.93;;;3.22;;
62580;SDS011;48640;48.770;9.148;2023-05-07T06:16:48;6.13;;;3.58;;
62580;SDS011;48640;48.770;9.148;2023-05-07T06:19:15;5.18;;;3.15;;
62580;SDS011;48640;48.770;9.148;2023-05-07T06:21:48;3.90;;;2.50;;
62580;SDS011;48640;48.770;9.148;2023-05-07T06:24:14;5.07;;;3.28;;
62580;SDS011;48640;48.770;9.148;2023-05-07T06:26:41;5.35;;;3.25;;
62580;SDS011;48640;48.770;9.148;2023-05-07T06:29:08;6.53;;;3.80;;
62580;SDS011;48640;48.770;9.148;2023-05-07T06:31:35;4.60;;;3.67;;
62580;SDS011;48640;48.770;9.148;2023-05-07T06:34:03;6.10;;;3.90;;
62580;SDS011;48640;48.770;9.148;2023-05-07T06:36:30;5.25;;;3.35;;
62580;SDS011;48640;48.770;9.148;2023-05-07T06:38:57;6.00;;;3.75;;
62580;SDS011;48640;48.770;9.148;2023-05-07T06:41:23;6.45;;;3.30;;
62580;SDS011;48640;48.770;9.148;2023-05-07T06:43:50;5.40;;;4.05;;
62580;SDS011;48640;48.770;9.148;2023-05-07T06:46:17;6.88;;;3.70;;
62580;SDS011;48640;48.770;9.148;2023-05-07T06:48:44;5.82;;;3.00;;
62580;SDS011;48640;48.770;9.148;2023-05-07T06:51:12;7.82;;;3.63;;
62580;SDS011;48640;48.770;9.148;2023-05-07T06:53:39;5.03;;;3.42;;
62580;SDS011;48640;48.770;9.148;2023-05-07T06:56:06;3.92;;;2.72;;
62580;SDS011;48640;48.770;9.148;2023-05-07T06:58:33;3.97;;;2.97;;
62580;SDS011;48640;48.770;9.148;2023-05-07T07:01:00;3.28;;;2.67;;
62580;SDS011;48640;48.770;9.148;2023-05-07T07:03:27;5.30;;;3.20;;
62580;SDS011;48640;48.770;9.148;2023-05-07T07:05:53;5.53;;;3.55;;
62580;SDS011;48640;48.770;9.148;2023-05-07T07:08:22;5.60;;;3.13;;
62580;SDS011;48640;48.770;9.148;2023-05-07T07:10:49;5.55;;;3.55;;
62580;SDS011;48640;48.770;9.148;2023-05-07T07:13:16;5.30;;;3.15;;
62580;SDS011;48640;48.770;9.148;2023-05-07T07:15:43;4.43;;;2.92;;
62580;SDS011;48640;48.770;9.148;2023-05-07T07:18:10;5.43;;;2.90;;
62580;SDS011;48640;48.770;9.148;2023-05-07T07:20:37;7.35;;;3.20;;
62580;SDS011;48640;48.770;9.148;2023-05-07T07:23:03;5.63;;;3.20;;
62580;SDS011;48640;48.770;9.148;2023-05-07T07:25:32;7.57;;;3.20;;
62580;SDS011;48640;48.770;9.148;2023-05-07T07:27:59;7.65;;;3.08;;
62580;SDS011;48640;48.770;9.148;2023-05-07T07:30:25;5.18;;;2.83;;
62580;SDS011;48640;48.770;9.148;2023-05-07T07:32:52;7.00;;;2.80;;
62580;SDS011;48640;48.770;9.148;2023-05-07T07:35:20;4.82;;;2.95;;
62580;SDS011;48640;48.770;9.148;2023-05-07T07:37:46;3.92;;;2.58;;
62580;SDS011;48640;48.770;9.148;2023-05-07T07:40:15;4.97;;;2.78;;
62580;SDS011;48640;48.770;9.148;2023-05-07T07:42:43;4.70;;;2.40;;
62580;SDS011;48640;48.770;9.148;2023-05-07T07:45:10;4.93;;;2.42;;
62580;SDS011;48640;48.770;9.148;2023-05-07T07:47:37;4.97;;;2.45;;
62580;SDS011;48640;48.770;9.148;2023-05-07T07:50:05;3.70;;;2.42;;
62580;SDS011;48640;48.770;9.148;2023-05-07T07:52:33;5.55;;;2.30;;
62580;SDS011;48640;48.770;9.148;2023-05-07T07:55:00;5.28;;;2.60;;
62580;SDS011;48640;48.770;9.148;2023-05-07T07:57:27;2.80;;;2.00;;
62580;SDS011;48640;48.770;9.148;2023-05-07T07:59:55;3.50;;;2.00;;
62580;SDS011;48640;48.770;9.148;2023-05-07T08:02:22;3.72;;;2.20;;
62580;SDS011;48640;48.770;9.148;2023-05-07T08:04:48;2.58;;;1.70;;
62580;SDS011;48640;48.770;9.148;2023-05-07T08:07:15;2.97;;;2.03;;
62580;SDS011;48640;48.770;9.148;2023-05-07T08:09:43;5.53;;;2.22;;
62580;SDS011;48640;48.770;9.148;2023-05-07T08:12:10;4.32;;;2.00;;
62580;SDS011;48640;48.770;9.148;2023-05-07T08:14:37;6.70;;;2.55;;
62580;SDS011;48640;48.770;9.148;2023-05-07T08:17:05;4.43;;;1.88;;
62580;SDS011;48640;48.770;9.148;2023-05-07T08:19:34;2.47;;;1.75;;
62580;SDS011;48640;48.770;9.148;2023-05-07T08:22:01;3.47;;;1.73;;
62580;SDS011;48640;48.770;9.148;2023-05-07T08:24:29;3.10;;;2.00;;
62580;SDS011;48640;48.770;9.148;2023-05-07T08:26:55;2.70;;;1.70;;
62580;SDS011;48640;48.770;9.148;2023-05-07T08:29:22;2.85;;;1.45;;
62580;SDS011;48640;48.770;9.148;2023-05-07T08:31:49;4.53;;;2.05;;
62580;SDS011;48640;48.770;9.148;2023-05-07T08:34:17;6.13;;;2.03;;
62580;SDS011;48640;48.770;9.148;2023-05-07T08:36:44;3.65;;;2.22;;
62580;SDS011;48640;48.770;9.148;2023-05-07T08:39:13;3.53;;;1.92;;
62580;SDS011;48640;48.770;9.148;2023-05-07T08:41:41;2.38;;;1.48;;
62580;SDS011;48640;48.770;9.148;2023-05-07T08:44:11;3.03;;;1.38;;
62580;SDS011;48640;48.770;9.148;2023-05-07T08:49:07;3.15;;;2.00;;
62580;SDS011;48640;48.770;9.148;2023-05-07T08:51:35;3.33;;;1.48;;
62580;SDS011;48640;48.770;9.148;2023-05-07T08:54:02;2.67;;;1.55;;
62580;SDS011;48640;48.770;9.148;2023-05-07T08:56:30;2.50;;;1.50;;
62580;SDS011;48640;48.770;9.148;2023-05-07T08:58:57;2.83;;;1.05;;
62580;SDS011;48640;48.770;9.148;2023-05-07T09:01:24;3.38;;;1.90;;
62580;SDS011;48640;48.770;9.148;2023-05-07T09:03:52;2.57;;;1.70;;
62580;SDS011;48640;48.770;9.148;2023-05-07T09:06:19;2.40;;;1.47;;
62580;SDS011;48640;48.770;9.148;2023-05-07T09:08:51;3.22;;;1.60;;
62580;SDS011;48640;48.770;9.148;2023-05-07T09:11:19;4.05;;;1.80;;
62580;SDS011;48640;48.770;9.148;2023-05-07T09:13:47;4.35;;;2.00;;
62580;SDS011;48640;48.770;9.148;2023-05-07T09:16:15;2.60;;;1.52;;
62580;SDS011;48640;48.770;9.148;2023-05-07T09:18:42;2.17;;;1.40;;
62580;SDS011;48640;48.770;9.148;2023-05-07T09:21:10;2.10;;;1.20;;
62580;SDS011;48640;48.770;9.148;2023-05-07T09:23:37;2.53;;;1.70;;
62580;SDS011;48640;48.770;9.148;2023-05-07T09:26:06;3.33;;;1.55;;
62580;SDS011;48640;48.770;9.148;2023-05-07T09:28:37;3.33;;;1.50;;
62580;SDS011;48640;48.770;9.148;2023-05-07T09:31:06;3.17;;;1.35;;
62580;SDS011;48640;48.770;9.148;2023-05-07T09:33:33;7.82;;;1.60;;
62580;SDS011;48640;48.770;9.148;2023-05-07T09:36:01;2.92;;;1.20;;
62580;SDS011;48640;48.770;9.148;2023-05-07T09:38:30;2.55;;;1.50;;
62580;SDS011;48640;48.770;9.148;2023-05-07T09:41:08;4.55;;;1.25;;
62580;SDS011;48640;48.770;9.148;2023-05-07T09:43:36;3.80;;;1.40;;
62580;SDS011;48640;48.770;9.148;2023-05-07T09:46:06;4.15;;;1.60;;
62580;SDS011;48640;48.770;9.148;2023-05-07T09:48:35;3.53;;;1.30;;
62580;SDS011;48640;48.770;9.148;2023-05-07T09:51:06;2.38;;;1.02;;
62580;SDS011;48640;48.770;9.148;2023-05-07T09:53:44;3.00;;;1.30;;
62580;SDS011;48640;48.770;9.148;2023-05-07T09:56:13;2.15;;;1.40;;
62580;SDS011;48640;48.770;9.148;2023-05-07T09:58:41;2.38;;;1.30;;
62580;SDS011;48640;48.770;9.148;2023-05-07T10:01:11;2.60;;;1.60;;
62580;SDS011;48640;48.770;9.148;2023-05-07T10:03:39;3.25;;;1.20;;
62580;SDS011;48640;48.770;9.148;2023-05-07T10:06:08;2.83;;;1.30;;
62580;SDS011;48640;48.770;9.148;2023-05-07T10:08:35;2.05;;;1.20;;
62580;SDS011;48640;48.770;9.148;2023-05-07T10:11:02;4.53;;;1.75;;
62580;SDS011;48640;48.770;9.148;2023-05-07T10:13:31;5.40;;;1.67;;
62580;SDS011;48640;48.770;9.148;2023-05-07T10:15:59;5.32;;;1.95;;
62580;SDS011;48640;48.770;9.148;2023-05-07T10:18:27;2.35;;;1.33;;
62580;SDS011;48640;48.770;9.148;2023-05-07T10:20:58;2.85;;;1.20;;
62580;SDS011;48640;48.770;9.148;2023-05-07T10:23:30;2.85;;;1.40;;
62580;SDS011;48640;48.770;9.148;2023-05-07T10:25:59;3.58;;;1.30;;
62580;SDS011;48640;48.770;9.148;2023-05-07T10:28:27;6.47;;;2.00;;
62580;SDS011;48640;48.770;9.148;2023-05-07T10:31:01;3.55;;;1.77;;
62580;SDS011;48640;48.770;9.148;2023-05-07T10:33:36;3.88;;;1.30;;
62580;SDS011;48640;48.770;9.148;2023-05-07T10:36:05;2.70;;;1.50;;
62580;SDS011;48640;48.770;9.148;2023-05-07T10:38:33;2.17;;;1.38;;
62580;SDS011;48640;48.770;9.148;2023-05-07T10:41:00;2.85;;;1.30;;
62580;SDS011;48640;48.770;9.148;2023-05-07T10:43:38;1.70;;;1.05;;
62580;SDS011;48640;48.770;9.148;2023-05-07T10:46:10;4.15;;;1.48;;
62580;SDS011;48640;48.770;9.148;2023-05-07T10:51:36;3.72;;;1.50;;
62580;SDS011;48640;48.770;9.148;2023-05-07T10:54:18;3.78;;;1.50;;
62580;SDS011;48640;48.770;9.148;2023-05-07T10:56:49;2.75;;;1.42;;
62580;SDS011;48640;48.770;9.148;2023-05-07T10:59:33;2.70;;;1.67;;
62580;SDS011;48640;48.770;9.148;2023-05-07T11:02:08;2.47;;;1.73;;
62580;SDS011;48640;48.770;9.148;2023-05-07T11:04:36;3.33;;;1.63;;
62580;SDS011;48640;48.770;9.148;2023-05-07T11:09:56;2.63;;;1.50;;
62580;SDS011;48640;48.770;9.148;2023-05-07T11:12:49;4.68;;;1.50;;
62580;SDS011;48640;48.770;9.148;2023-05-07T11:18:08;5.90;;;1.33;;
62580;SDS011;48640;48.770;9.148;2023-05-07T11:20:48;2.83;;;1.83;;
62580;SDS011;48640;48.770;9.148;2023-05-07T11:26:47;5.10;;;2.25;;
62580;SDS011;48640;48.770;9.148;2023-05-07T11:29:15;4.90;;;1.60;;
62580;SDS011;48640;48.770;9.148;2023-05-07T11:31:43;5.00;;;1.30;;
62580;SDS011;48640;48.770;9.148;2023-05-07T11:34:11;3.22;;;1.45;;
62580;SDS011;48640;48.770;9.148;2023-05-07T11:36:41;4.10;;;1.60;;
62580;SDS011;48640;48.770;9.148;2023-05-07T11:39:25;3.08;;;1.48;;
62580;SDS011;48640;48.770;9.148;2023-05-07T11:41:53;2.97;;;1.38;;
62580;SDS011;48640;48.770;9.148;2023-05-07T11:44:19;3.47;;;1.60;;
62580;SDS011;48640;48.770;9.148;2023-05-07T11:46:46;2.78;;;1.60;;
62580;SDS011;48640;48.770;9.148;2023-05-07T11:49:15;3.40;;;1.52;;
62580;SDS011;48640;48.770;9.148;2023-05-07T11:51:43;2.92;;;1.23;;
62580;SDS011;48640;48.770;9.148;2023-05-07T11:54:11;3.08;;;1.92;;
62580;SDS011;48640;48.770;9.148;2023-05-07T11:56:42;4.03;;;2.33;;
62580;SDS011;48640;48.770;9.148;2023-05-07T11:59:09;4.07;;;1.60;;
62580;SDS011;48640;48.770;9.148;2023-05-07T12:01:36;2.72;;;1.95;;
62580;SDS011;48640;48.770;9.148;2023-05-07T12:04:03;4.00;;;1.85;;
62580;SDS011;48640;48.770;9.148;2023-05-07T12:06:35;3.40;;;2.13;;
62580;SDS011;48640;48.770;9.148;2023-05-07T12:09:02;4.25;;;2.15;;
62580;SDS011;48640;48.770;9.148;2023-05-07T12:11:32;5.88;;;2.38;;
62580;SDS011;48640;48.770;9.148;2023-05-07T12:13:59;6.07;;;3.03;;
62580;SDS011;48640;48.770;9.148;2023-05-07T12:16:26;5.07;;;2.90;;
62580;SDS011;48640;48.770;9.148;2023-05-07T12:18:53;14.32;;;4.25;;
62580;SDS011;48640;48.770;9.148;2023-05-07T12:21:20;5.90;;;2.10;;
62580;SDS011;48640;48.770;9.148;2023-05-07T12:23:49;6.80;;;3.08;;
62580;SDS011;48640;48.770;9.148;2023-05-07T12:26:15;7.35;;;3.05;;
62580;SDS011;48640;48.770;9.148;2023-05-07T12:28:42;7.65;;;4.03;;
62580;SDS011;48640;48.770;9.148;2023-05-07T12:31:09;15.77;;;7.65;;
62580;SDS011;48640;48.770;9.148;2023-05-07T12:33:36;12.23;;;6.63;;
62580;SDS011;48640;48.770;9.148;2023-05-07T12:36:04;10.20;;;3.55;;
62580;SDS011;48640;48.770;9.148;2023-05-07T12:41:05;9.02;;;3.22;;
62580;SDS011;48640;48.770;9.148;2023-05-07T12:43:33;6.53;;;2.65;;
62580;SDS011;48640;48.770;9.148;2023-05-07T12:46:01;12.68;;;5.65;;
62580;SDS011;48640;48.770;9.148;2023-05-07T12:48:30;9.73;;;2.63;;
62580;SDS011;48640;48.770;9.148;2023-05-07T12:50:57;15.00;;;4.40;;
62580;SDS011;48640;48.770;9.148;2023-05-07T12:53:27;7.38;;;3.08;;
62580;SDS011;48640;48.770;9.148;2023-05-07T12:55:55;22.15;;;4.38;;
62580;SDS011;48640;48.770;9.148;2023-05-07T12:58:25;8.85;;;3.40;;
62580;SDS011;48640;48.770;9.148;2023-05-07T13:00:54;11.30;;;3.70;;
62580;SDS011;48640;48.770;9.148;2023-05-07T13:03:24;11.73;;;4.13;;
62580;SDS011;48640;48.770;9.148;2023-05-07T13:05:52;7.32;;;4.05;;
62580;SDS011;48640;48.770;9.148;2023-05-07T13:08:26;13.45;;;4.05;;
62580;SDS011;48640;48.770;9.148;2023-05-07T13:10:55;20.17;;;3.80;;
62580;SDS011;48640;48.770;9.148;2023-05-07T13:13:22;14.20;;;6.55;;
62580;SDS011;48640;48.770;9.148;2023-05-07T13:15:51;6.13;;;3.30;;
62580;SDS011;48640;48.770;9.148;2023-05-07T13:18:18;5.13;;;3.28;;
62580;SDS011;48640;48.770;9.148;2023-05-07T13:20:44;4.75;;;2.85;;
62580;SDS011;48640;48.770;9.148;2023-05-07T13:23:11;6.78;;;3.00;;
62580;SDS011;48640;48.770;9.148;2023-05-07T13:25:38;10.98;;;3.55;;
62580;SDS011;48640;48.770;9.148;2023-05-07T13:28:05;5.25;;;2.90;;
62580;SDS011;48640;48.770;9.148;2023-05-07T13:30:32;6.25;;;2.95;;
62580;SDS011;48640;48.770;9.148;2023-05-07T13:33:00;8.75;;;3.55;;
62580;SDS011;48640;48.770;9.148;2023-05-07T13:35:27;8.18;;;3.35;;
62580;SDS011;48640;48.770;9.148;2023-05-07T13:37:54;5.32;;;2.70;;
62580;SDS011;48640;48.770;9.148;2023-05-07T13:40:21;4.75;;;3.45;;
62580;SDS011;48640;48.770;9.148;2023-05-07T13:42:48;7.70;;;3.42;;
62580;SDS011;48640;48.770;9.148;2023-05-07T13:45:15;4.32;;;3.10;;
62580;SDS011;48640;48.770;9.148;2023-05-07T13:47:42;5.72;;;3.03;;
62580;SDS011;48640;48.770;9.148;2023-05-07T13:50:10;7.65;;;3.25;;
62580;SDS011;48640;48.770;9.148;2023-05-07T13:52:40;5.55;;;2.92;;
62580;SDS011;48640;48.770;9.148;2023-05-07T13:55:08;5.32;;;2.80;;
62580;SDS011;48640;48.770;9.148;2023-05-07T13:57:35;4.53;;;2.40;;
62580;SDS011;48640;48.770;9.148;2023-05-07T14:00:02;5.38;;;3.38;;
62580;SDS011;48640;48.770;9.148;2023-05-07T14:02:30;5.88;;;3.85;;
62580;SDS011;48640;48.770;9.148;2023-05-07T14:04:57;5.03;;;2.53;;
62580;SDS011;48640;48.770;9.148;2023-05-07T14:07:25;5.45;;;2.22;;
62580;SDS011;48640;48.770;9.148;2023-05-07T14:09:52;7.43;;;2.90;;
62580;SDS011;48640;48.770;9.148;2023-05-07T14:12:19;5.35;;;2.60;;
62580;SDS011;48640;48.770;9.148;2023-05-07T14:14:45;3.58;;;2.88;;
62580;SDS011;48640;48.770;9.148;2023-05-07T14:17:14;4.90;;;2.42;;
62580;SDS011;48640;48.770;9.148;2023-05-07T14:19:42;5.07;;;2.85;;
62580;SDS011;48640;48.770;9.148;2023-05-07T14:22:09;6.07;;;3.47;;
62580;SDS011;48640;48.770;9.148;2023-05-07T14:24:37;4.97;;;3.20;;
62580;SDS011;48640;48.770;9.148;2023-05-07T14:27:04;6.18;;;3.33;;
62580;SDS011;48640;48.770;9.148;2023-05-07T14:29:31;5.13;;;3.25;;
62580;SDS011;48640;48.770;9.148;2023-05-07T14:32:00;6.53;;;3.38;;
62580;SDS011;48640;48.770;9.148;2023-05-07T14:34:27;4.72;;;3.22;;
62580;SDS011;48640;48.770;9.148;2023-05-07T14:36:54;5.43;;;3.58;;
62580;SDS011;48640;48.770;9.148;2023-05-07T14:39:21;7.18;;;3.15;;
62580;SDS011;48640;48.770;9.148;2023-05-07T14:41:49;4.40;;;3.20;;
62580;SDS011;48640;48.770;9.148;2023-05-07T14:44:16;5.72;;;2.88;;
62580;SDS011;48640;48.770;9.148;2023-05-07T14:46:43;5.07;;;2.97;;
62580;SDS011;48640;48.770;9.148;2023-05-07T14:49:09;4.35;;;2.95;;
62580;SDS011;48640;48.770;9.148;2023-05-07T14:51:42;7.20;;;2.88;;
62580;SDS011;48640;48.770;9.148;2023-05-07T14:54:09;5.93;;;2.35;;
62580;SDS011;48640;48.770;9.148;2023-05-07T14:56:36;4.22;;;2.47;;
62580;SDS011;48640;48.770;9.148;2023-05-07T14:59:04;3.17;;;1.95;;
62580;SDS011;48640;48.770;9.148;2023-05-07T15:01:32;3.55;;;1.90;;
62580;SDS011;48640;48.770;9.148;2023-05-07T15:04:00;5.00;;;2.53;;
62580;SDS011;48640;48.770;9.148;2023-05-07T15:06:27;6.32;;;3.70;;
62580;SDS011;48640;48.770;9.148;2023-05-07T15:08:54;3.30;;;2.30;;